sensor_id;sensor_type;location;lat;lon;timestamp;pressure;altitude;pressure_sealevel;temperature;humidity
35918;BME280;22011;59.912;30.300;2023-04-27T00:01:37;100436.19;;;14.40;43.72
35918;BME280;22011;59.912;30.300;2023-04-27T00:04:04;100438.88;;;14.40;43.49
35918;BME280;22011;59.912;30.300;2023-04-27T00:06:32;100423.47;;;14.43;43.45
35918;BME280;22011;59.912;30.300;2023-04-27T00:09:00;100430.91;;;14.47;43.37
35918;BME280;22011;59.912;30.300;2023-04-27T00:11:30;100455.16;;;14.39;43.91
35918;BME280;22011;59.912;30.300;2023-04-27T00:13:57;100430.56;;;14.29;43.79
35918;BME280;22011;59.912;30.300;2023-04-27T00:16:25;100431.16;;;14.24;44.40
35918;BME280;22011;59.912;30.300;2023-04-27T00:18:52;100448.47;;;14.22;44.34
35918;BME280;22011;59.912;30.300;2023-04-27T00:21:20;100438.97;;;14.19;44.42
35918;BME280;22011;59.912;30.300;2023-04-27T00:23:48;100435.84;;;14.16;44.90
35918;BME280;22011;59.912;30.300;2023-04-27T00:26:15;100438.53;;;14.16;44.66
35918;BME280;22011;59.912;30.300;2023-04-27T00:28:48;100440.19;;;14.17;45.21
35918;BME280;22011;59.912;30.300;2023-04-27T00:31:16;100429.47;;;14.17;45.11
35918;BME280;22011;59.912;30.300;2023-04-27T00:33:43;100433.56;;;14.13;44.95
35918;BME280;22011;59.912;30.300;2023-04-27T00:36:11;100430.25;;;14.11;45.28
35918;BME280;22011;59.912;30.300;2023-04-27T00:38:40;100433.56;;;14.13;45.15
35918;BME280;22011;59.912;30.300;2023-04-27T00:41:08;100427.19;;;14.14;44.83
35918;BME280;22011;59.912;30.300;2023-04-27T00:43:41;100435.28;;;14.27;46.05
35918;BME280;22011;59.912;30.300;2023-04-27T00:46:12;100435.94;;;14.29;44.87
35918;BME280;22011;59.912;30.300;2023-04-27T00:48:40;100426.19;;;14.21;45.26
35918;BME280;22011;59.912;30.300;2023-04-27T00:51:08;100425.75;;;14.18;45.39
35918;BME280;22011;59.912;30.300;2023-04-27T00:53:35;100428.19;;;14.13;45.30
35918;BME280;22011;59.912;30.300;2023-04-27T00:56:04;100433.56;;;14.13;45.70
35918;BME280;22011;59.912;30.300;2023-04-27T00:58:32;100441.41;;;14.14;45.47
35918;BME280;22011;59.912;30.300;2023-04-27T01:01:00;100433.78;;;14.18;44.80
35918;BME280;22011;59.912;30.300;2023-04-27T01:03:31;100429.06;;;14.20;45.19
35918;BME280;22011;59.912;30.300;2023-04-27T01:05:59;100427.59;;;14.17;45.51
35918;BME280;22011;59.912;30.300;2023-04-27T01:08:27;100434.06;;;14.29;45.33
35918;BME280;22011;59.912;30.300;2023-04-27T01:10:54;100431.16;;;14.24;44.83
35918;BME280;22011;59.912;30.300;2023-04-27T01:13:22;100433.44;;;14.27;45.14
35918;BME280;22011;59.912;30.300;2023-04-27T01:15:49;100420.47;;;14.31;44.91
35918;BME280;22011;59.912;30.300;2023-04-27T01:18:17;100422.75;;;14.34;44.41
35918;BME280;22011;59.912;30.300;2023-04-27T01:20:46;100417.44;;;14.40;44.64
35918;BME280;22011;59.912;30.300;2023-04-27T01:23:16;100423.63;;;14.41;44.78
35918;BME280;22011;59.912;30.300;2023-04-27T01:25:43;100418.66;;;14.38;44.35
35918;BME280;22011;59.912;30.300;2023-04-27T01:28:11;100415.56;;;14.34;44.90
35918;BME280;22011;59.912;30.300;2023-04-27T01:30:38;100415.16;;;14.37;44.50
35918;BME280;22011;59.912;30.300;2023-04-27T01:33:06;100418.66;;;14.38;44.56
35918;BME280;22011;59.912;30.300;2023-04-27T01:35:33;100419.69;;;14.37;44.78
35918;BME280;22011;59.912;30.300;2023-04-27T01:38:01;100422.13;;;14.32;44.93
35918;BME280;22011;59.912;30.300;2023-04-27T01:40:30;100419.25;;;14.33;45.11
35918;BME280;22011;59.912;30.300;2023-04-27T01:42:57;100424.56;;;14.27;45.12
35918;BME280;22011;59.912;30.300;2023-04-27T01:45:25;100427.66;;;14.24;45.18
35918;BME280;22011;59.912;30.300;2023-04-27T01:47:52;100425.75;;;14.18;45.02
35918;BME280;22011;59.912;30.300;2023-04-27T01:50:20;100434.47;;;14.26;45.11
35918;BME280;22011;59.912;30.300;2023-04-27T01:52:47;100455.88;;;14.20;45.04
35918;BME280;22011;59.912;30.300;2023-04-27T01:55:15;100466.97;;;14.17;45.54
35918;BME280;22011;59.912;30.300;2023-04-27T01:57:44;100476.50;;;14.26;45.67
35918;BME280;22011;59.912;30.300;2023-04-27T02:00:12;100476.91;;;14.23;45.41
35918;BME280;22011;59.912;30.300;2023-04-27T02:02:51;100478.56;;;14.24;45.78
35918;BME280;22011;59.912;30.300;2023-04-27T02:05:22;100483.53;;;14.27;45.69
35918;BME280;22011;59.912;30.300;2023-04-27T02:07:51;100482.69;;;14.26;45.98
35918;BME280;22011;59.912;30.300;2023-04-27T02:10:19;100487.19;;;14.19;46.17
35918;BME280;22011;59.912;30.300;2023-04-27T02:12:49;100492.75;;;14.18;46.40
35918;BME280;22011;59.912;30.300;2023-04-27T02:15:16;100490.44;;;14.15;46.28
35918;BME280;22011;59.912;30.300;2023-04-27T02:17:44;100484.16;;;14.01;47.32
35918;BME280;22011;59.912;30.300;2023-04-27T02:20:12;100487.88;;;13.79;49.06
35918;BME280;22011;59.912;30.300;2023-04-27T02:22:40;100495.72;;;13.59;50.24
35918;BME280;22011;59.912;30.300;2023-04-27T02:25:09;100500.63;;;13.55;50.73
35918;BME280;22011;59.912;30.300;2023-04-27T02:27:36;100508.03;;;13.53;51.59
35918;BME280;22011;59.912;30.300;2023-04-27T02:30:07;100514.22;;;13.54;53.03
35918;BME280;22011;59.912;30.300;2023-04-27T02:32:35;100509.50;;;13.34;53.53
35918;BME280;22011;59.912;30.300;2023-04-27T02:35:04;100523.91;;;13.33;53.69
35918;BME280;22011;59.912;30.300;2023-04-27T02:37:32;100523.56;;;13.22;54.54
35918;BME280;22011;59.912;30.300;2023-04-27T02:40:00;100533.72;;;12.97;54.73
35918;BME280;22011;59.912;30.300;2023-04-27T02:42:31;100540.66;;;12.76;55.58
35918;BME280;22011;59.912;30.300;2023-04-27T02:44:59;100540.63;;;12.62;55.69
35918;BME280;22011;59.912;30.300;2023-04-27T02:47:27;100548.28;;;12.50;56.45
35918;BME280;22011;59.912;30.300;2023-04-27T02:49:55;100538.16;;;12.31;56.87
35918;BME280;22011;59.912;30.300;2023-04-27T02:52:23;100537.88;;;12.26;57.17
35918;BME280;22011;59.912;30.300;2023-04-27T02:54:50;100539.03;;;12.08;57.29
35918;BME280;22011;59.912;30.300;2023-04-27T02:57:18;100540.69;;;12.09;57.59
35918;BME280;22011;59.912;30.300;2023-04-27T02:59:46;100540.22;;;12.06;57.95
35918;BME280;22011;59.912;30.300;2023-04-27T03:02:13;100543.41;;;12.01;58.39
35918;BME280;22011;59.912;30.300;2023-04-27T03:04:42;100540.75;;;12.01;58.49
35918;BME280;22011;59.912;30.300;2023-04-27T03:07:10;100546.28;;;12.00;58.18
35918;BME280;22011;59.912;30.300;2023-04-27T03:09:37;100549.06;;;12.06;58.04
35918;BME280;22011;59.912;30.300;2023-04-27T03:12:05;100555.34;;;12.14;57.44
35918;BME280;22011;59.912;30.300;2023-04-27T03:14:32;100541.72;;;12.23;57.38
35918;BME280;22011;59.912;30.300;2023-04-27T03:17:00;100560.97;;;12.19;57.36
35918;BME280;22011;59.912;30.300;2023-04-27T03:19:28;100558.59;;;12.24;56.95
35918;BME280;22011;59.912;30.300;2023-04-27T03:21:58;100565.00;;;12.15;57.22
35918;BME280;22011;59.912;30.300;2023-04-27T03:28:24;100575.34;;;12.18;58.36
35918;BME280;22011;59.912;30.300;2023-04-27T03:30:54;100575.06;;;11.90;57.70
35918;BME280;22011;59.912;30.300;2023-04-27T03:33:22;100570.31;;;11.77;58.49
35918;BME280;22011;59.912;30.300;2023-04-27T03:35:54;100572.47;;;11.73;59.49
35918;BME280;22011;59.912;30.300;2023-04-27T03:38:24;100575.53;;;11.62;59.45
35918;BME280;22011;59.912;30.300;2023-04-27T03:40:52;100571.06;;;11.55;59.40
35918;BME280;22011;59.912;30.300;2023-04-27T03:43:20;100563.84;;;11.63;59.29
35918;BME280;22011;59.912;30.300;2023-04-27T03:45:48;100566.34;;;11.65;59.39
35918;BME280;22011;59.912;30.300;2023-04-27T03:48:16;100566.63;;;11.78;59.02
35918;BME280;22011;59.912;30.300;2023-04-27T03:50:46;100563.91;;;11.86;58.98
35918;BME280;22011;59.912;30.300;2023-04-27T03:53:14;100571.56;;;11.89;58.36
35918;BME280;22011;59.912;30.300;2023-04-27T03:55:44;100565.19;;;11.90;59.16
35918;BME280;22011;59.912;30.300;2023-04-27T03:58:11;100562.81;;;11.95;58.81
35918;BME280;22011;59.912;30.300;2023-04-27T04:00:59;100569.94;;;12.03;58.50
35918;BME280;22011;59.912;30.300;2023-04-27T04:03:27;100569.28;;;12.01;58.88
35918;BME280;22011;59.912;30.300;2023-04-27T04:05:54;100568.81;;;11.97;59.05
35918;BME280;22011;59.912;30.300;2023-04-27T04:11:39;100573.31;;;11.97;59.41
35918;BME280;22011;59.912;30.300;2023-04-27T04:14:09;100578.50;;;11.98;58.89
35918;BME280;22011;59.912;30.300;2023-04-27T04:16:36;100571.38;;;11.91;59.49
35918;BME280;22011;59.912;30.300;2023-04-27T04:19:04;100576.19;;;11.95;59.90
35918;BME280;22011;59.912;30.300;2023-04-27T04:21:32;100578.06;;;11.87;59.72
35918;BME280;22011;59.912;30.300;2023-04-27T04:23:59;100598.78;;;11.85;60.28
35918;BME280;22011;59.912;30.300;2023-04-27T04:26:27;100591.59;;;11.85;60.15
35918;BME280;22011;59.912;30.300;2023-04-27T04:28:57;100597.06;;;11.92;60.43
35918;BME280;22011;59.912;30.300;2023-04-27T04:31:24;100595.63;;;11.81;60.66
35918;BME280;22011;59.912;30.300;2023-04-27T04:33:52;100590.00;;;11.68;60.80
35918;BME280;22011;59.912;30.300;2023-04-27T04:36:20;100592.56;;;11.61;61.30
35918;BME280;22011;59.912;30.300;2023-04-27T04:38:51;100596.28;;;11.52;62.03
35918;BME280;22011;59.912;30.300;2023-04-27T04:41:19;100593.19;;;11.40;62.49
35918;BME280;22011;59.912;30.300;2023-04-27T04:43:46;100596.97;;;11.46;62.53
35918;BME280;22011;59.912;30.300;2023-04-27T04:46:17;100600.72;;;11.60;62.15
35918;BME280;22011;59.912;30.300;2023-04-27T04:48:48;100597.38;;;11.66;62.07
35918;BME280;22011;59.912;30.300;2023-04-27T04:51:16;100617.00;;;11.73;61.80
35918;BME280;22011;59.912;30.300;2023-04-27T04:53:43;100619.66;;;11.81;61.31
35918;BME280;22011;59.912;30.300;2023-04-27T04:56:12;100629.94;;;11.92;61.46
35918;BME280;22011;59.912;30.300;2023-04-27T04:58:41;100601.69;;;11.98;61.00
35918;BME280;22011;59.912;30.300;2023-04-27T05:01:09;100618.59;;;11.90;61.69
35918;BME280;22011;59.912;30.300;2023-04-27T05:03:38;100623.94;;;11.90;61.84
35918;BME280;22011;59.912;30.300;2023-04-27T05:06:06;100618.28;;;11.85;62.03
35918;BME280;22011;59.912;30.300;2023-04-27T05:08:33;100614.81;;;11.76;62.48
35918;BME280;22011;59.912;30.300;2023-04-27T05:11:00;100619.69;;;11.73;62.58
35918;BME280;22011;59.912;30.300;2023-04-27T05:13:28;100613.03;;;11.69;63.06
35918;BME280;22011;59.912;30.300;2023-04-27T05:15:56;100616.69;;;11.68;63.09
35918;BME280;22011;59.912;30.300;2023-04-27T05:18:23;100611.19;;;11.69;63.26
35918;BME280;22011;59.912;30.300;2023-04-27T05:20:52;100618.84;;;11.72;63.11
35918;BME280;22011;59.912;30.300;2023-04-27T05:23:19;100615.03;;;11.67;63.28
35918;BME280;22011;59.912;30.300;2023-04-27T05:25:47;100616.03;;;11.66;63.56
35918;BME280;22011;59.912;30.300;2023-04-27T05:28:14;100616.69;;;11.68;63.26
35918;BME280;22011;59.912;30.300;2023-04-27T05:30:42;100624.66;;;11.76;63.47
35918;BME280;22011;59.912;30.300;2023-04-27T05:33:09;100629.16;;;11.84;62.78
35918;BME280;22011;59.912;30.300;2023-04-27T05:35:36;100631.47;;;11.87;62.65
35918;BME280;22011;59.912;30.300;2023-04-27T05:38:05;100630.34;;;11.81;63.12
35918;BME280;22011;59.912;30.300;2023-04-27T05:40:33;100629.16;;;11.75;62.77
35918;BME280;22011;59.912;30.300;2023-04-27T05:43:00;100633.38;;;11.70;63.20
35918;BME280;22011;59.912;30.300;2023-04-27T05:45:30;100630.53;;;11.71;62.98
35918;BME280;22011;59.912;30.300;2023-04-27T05:47:58;100625.50;;;11.76;63.11
35918;BME280;22011;59.912;30.300;2023-04-27T05:50:25;100631.34;;;11.80;63.20
35918;BME280;22011;59.912;30.300;2023-04-27T05:52:53;100624.34;;;11.79;63.45
35918;BME280;22011;59.912;30.300;2023-04-27T05:55:26;100633.00;;;11.81;63.91
35918;BME280;22011;59.912;30.300;2023-04-27T05:57:53;100638.84;;;11.76;64.18
35918;BME280;22011;59.912;30.300;2023-04-27T06:00:22;100636.03;;;11.78;63.62
35918;BME280;22011;59.912;30.300;2023-04-27T06:02:50;100622.34;;;11.73;63.93
35918;BME280;22011;59.912;30.300;2023-04-27T06:05:18;100626.00;;;11.80;64.34
35918;BME280;22011;59.912;30.300;2023-04-27T06:07:48;100636.69;;;11.80;65.21
35918;BME280;22011;59.912;30.300;2023-04-27T06:10:16;100631.84;;;11.75;65.10
35918;BME280;22011;59.912;30.300;2023-04-27T06:12:45;100627.78;;;11.88;65.29
35918;BME280;22011;59.912;30.300;2023-04-27T06:15:13;100625.00;;;11.81;64.87
35918;BME280;22011;59.912;30.300;2023-04-27T06:17:40;100620.97;;;11.85;65.14
35918;BME280;22011;59.912;30.300;2023-04-27T06:20:09;100619.84;;;12.02;64.18
35918;BME280;22011;59.912;30.300;2023-04-27T06:22:39;100619.25;;;12.15;63.91
35918;BME280;22011;59.912;30.300;2023-04-27T06:25:07;100636.13;;;12.16;63.95
35918;BME280;22011;59.912;30.300;2023-04-27T06:27:34;100644.31;;;12.14;63.44
35918;BME280;22011;59.912;30.300;2023-04-27T06:30:05;100651.44;;;12.22;63.43
35918;BME280;22011;59.912;30.300;2023-04-27T06:32:32;100646.53;;;12.63;63.52
35918;BME280;22011;59.912;30.300;2023-04-27T06:35:00;100640.63;;;12.38;62.49
35918;BME280;22011;59.912;30.300;2023-04-27T06:37:28;100648.81;;;12.36;62.25
35918;BME280;22011;59.912;30.300;2023-04-27T06:39:55;100652.00;;;12.32;62.27
35918;BME280;22011;59.912;30.300;2023-04-27T06:42:23;100653.91;;;12.46;62.10
35918;BME280;22011;59.912;30.300;2023-04-27T06:44:52;100648.47;;;12.54;62.47
35918;BME280;22011;59.912;30.300;2023-04-27T06:47:21;100663.84;;;12.52;62.05
35918;BME280;22011;59.912;30.300;2023-04-27T06:49:49;100656.28;;;12.41;62.02
35918;BME280;22011;59.912;30.300;2023-04-27T06:52:17;100653.19;;;12.29;62.03
35918;BME280;22011;59.912;30.300;2023-04-27T06:54:44;100656.94;;;12.20;62.57
35918;BME280;22011;59.912;30.300;2023-04-27T06:57:12;100664.00;;;12.13;63.03
35918;BME280;22011;59.912;30.300;2023-04-27T06:59:39;100658.72;;;12.05;63.28
35918;BME280;22011;59.912;30.300;2023-04-27T07:02:07;100647.56;;;12.01;63.49
35918;BME280;22011;59.912;30.300;2023-04-27T07:04:35;100658.78;;;11.97;63.91
35918;BME280;22011;59.912;30.300;2023-04-27T07:07:03;100654.84;;;11.85;63.74
35918;BME280;22011;59.912;30.300;2023-04-27T07:09:30;100664.88;;;11.83;64.29
35918;BME280;22011;59.912;30.300;2023-04-27T07:11:58;100673.03;;;11.81;64.02
35918;BME280;22011;59.912;30.300;2023-04-27T07:14:26;100672.88;;;11.74;64.15
35918;BME280;22011;59.912;30.300;2023-04-27T07:16:54;100686.78;;;11.62;64.63
35918;BME280;22011;59.912;30.300;2023-04-27T07:19:21;100684.59;;;11.65;64.66
35918;BME280;22011;59.912;30.300;2023-04-27T07:21:50;100701.09;;;11.77;64.66
35918;BME280;22011;59.912;30.300;2023-04-27T07:24:17;100696.06;;;11.82;64.47
35918;BME280;22011;59.912;30.300;2023-04-27T07:26:45;100689.94;;;12.04;63.54
35918;BME280;22011;59.912;30.300;2023-04-27T07:29:13;100697.72;;;12.14;63.50
35918;BME280;22011;59.912;30.300;2023-04-27T07:31:42;100688.75;;;12.30;63.21
35918;BME280;22011;59.912;30.300;2023-04-27T07:34:09;100686.06;;;12.53;63.32
35918;BME280;22011;59.912;30.300;2023-04-27T07:36:37;100676.06;;;12.69;62.16
35918;BME280;22011;59.912;30.300;2023-04-27T07:39:06;100675.63;;;12.81;62.33
35918;BME280;22011;59.912;30.300;2023-04-27T07:41:34;100679.69;;;12.91;61.97
35918;BME280;22011;59.912;30.300;2023-04-27T07:44:01;100670.22;;;13.03;61.06
35918;BME280;22011;59.912;30.300;2023-04-27T07:46:29;100669.94;;;12.98;60.99
35918;BME280;22011;59.912;30.300;2023-04-27T07:48:56;100672.50;;;13.06;60.67
35918;BME280;22011;59.912;30.300;2023-04-27T07:51:25;100681.47;;;12.99;60.88
35918;BME280;22011;59.912;30.300;2023-04-27T07:53:53;100681.47;;;12.99;60.86
35918;BME280;22011;59.912;30.300;2023-04-27T07:56:22;100692.53;;;12.96;60.94
35918;BME280;22011;59.912;30.300;2023-04-27T07:58:50;100684.31;;;12.97;60.98
35918;BME280;22011;59.912;30.300;2023-04-27T08:01:17;100687.81;;;12.98;60.48
35918;BME280;22011;59.912;30.300;2023-04-27T08:03:46;100702.66;;;12.86;60.49
35918;BME280;22011;59.912;30.300;2023-04-27T08:06:13;100699.47;;;12.67;60.76
35918;BME280;22011;59.912;30.300;2023-04-27T08:08:41;100716.38;;;12.45;61.58
35918;BME280;22011;59.912;30.300;2023-04-27T08:11:08;100714.47;;;12.31;62.03
35918;BME280;22011;59.912;30.300;2023-04-27T08:13:38;100710.84;;;12.24;62.94
35918;BME280;22011;59.912;30.300;2023-04-27T08:16:05;100725.13;;;12.08;63.41
35918;BME280;22011;59.912;30.300;2023-04-27T08:18:33;100720.97;;;12.05;65.11
35918;BME280;22011;59.912;30.300;2023-04-27T08:21:00;100711.69;;;11.93;65.33
35918;BME280;22011;59.912;30.300;2023-04-27T08:23:29;100692.03;;;11.86;66.00
35918;BME280;22011;59.912;30.300;2023-04-27T08:25:58;100688.56;;;11.77;66.53
35918;BME280;22011;59.912;30.300;2023-04-27T08:28:25;100705.09;;;11.73;67.04
35918;BME280;22011;59.912;30.300;2023-04-27T08:30:54;100726.75;;;11.86;66.54
35918;BME280;22011;59.912;30.300;2023-04-27T08:33:22;100721.72;;;11.91;66.22
35918;BME280;22011;59.912;30.300;2023-04-27T08:35:52;100723.69;;;11.97;65.24
35918;BME280;22011;59.912;30.300;2023-04-27T08:38:20;100733.78;;;12.10;64.85
35918;BME280;22011;59.912;30.300;2023-04-27T08:40:47;100730.91;;;12.20;63.42
35918;BME280;22011;59.912;30.300;2023-04-27T08:43:15;100737.84;;;12.29;63.81
35918;BME280;22011;59.912;30.300;2023-04-27T08:45:47;100734.69;;;12.48;63.27
35918;BME280;22011;59.912;30.300;2023-04-27T08:48:16;100733.63;;;12.57;62.03
35918;BME280;22011;59.912;30.300;2023-04-27T08:50:48;100733.38;;;12.67;62.06
35918;BME280;22011;59.912;30.300;2023-04-27T08:53:16;100731.25;;;12.62;61.23
35918;BME280;22011;59.912;30.300;2023-04-27T08:55:44;100726.59;;;12.79;60.17
35918;BME280;22011;59.912;30.300;2023-04-27T08:58:11;100724.63;;;12.96;59.73
35918;BME280;22011;59.912;30.300;2023-04-27T09:00:40;100734.03;;;13.06;59.04
35918;BME280;22011;59.912;30.300;2023-04-27T09:03:20;100729.56;;;13.22;59.78
35918;BME280;22011;59.912;30.300;2023-04-27T09:05:48;100737.25;;;13.02;58.41
35918;BME280;22011;59.912;30.300;2023-04-27T09:08:16;100747.41;;;13.06;58.40
35918;BME280;22011;59.912;30.300;2023-04-27T09:10:44;100741.31;;;12.98;58.72
35918;BME280;22011;59.912;30.300;2023-04-27T09:13:12;100741.84;;;13.16;57.55
35918;BME280;22011;59.912;30.300;2023-04-27T09:15:41;100745.16;;;13.18;58.17
35918;BME280;22011;59.912;30.300;2023-04-27T09:18:14;100739.31;;;13.15;58.80
35918;BME280;22011;59.912;30.300;2023-04-27T09:20:44;100746.19;;;12.94;58.69
35918;BME280;22011;59.912;30.300;2023-04-27T09:23:24;100742.75;;;12.86;60.39
35918;BME280;22011;59.912;30.300;2023-04-27T09:25:53;100742.63;;;12.41;59.51
35918;BME280;22011;59.912;30.300;2023-04-27T09:28:21;100741.53;;;12.28;60.15
35918;BME280;22011;59.912;30.300;2023-04-27T09:30:53;100742.13;;;12.38;60.93
35918;BME280;22011;59.912;30.300;2023-04-27T09:33:24;100744.00;;;12.52;60.40
35918;BME280;22011;59.912;30.300;2023-04-27T09:35:53;100739.16;;;12.56;60.82
35918;BME280;22011;59.912;30.300;2023-04-27T09:38:22;100732.94;;;12.40;60.19
35918;BME280;22011;59.912;30.300;2023-04-27T09:40:51;100744.56;;;12.25;60.54
35918;BME280;22011;59.912;30.300;2023-04-27T09:43:19;100742.81;;;12.09;60.50
35918;BME280;22011;59.912;30.300;2023-04-27T09:45:47;100754.53;;;12.00;60.83
35918;BME280;22011;59.912;30.300;2023-04-27T09:48:16;100774.91;;;12.01;60.53
35918;BME280;22011;59.912;30.300;2023-04-27T09:50:44;100783.22;;;12.06;60.66
35918;BME280;22011;59.912;30.300;2023-04-27T09:53:16;100774.50;;;12.12;60.12
35918;BME280;22011;59.912;30.300;2023-04-27T09:55:49;100775.47;;;12.19;59.91
35918;BME280;22011;59.912;30.300;2023-04-27T09:58:35;100793.47;;;12.25;61.46
35918;BME280;22011;59.912;30.300;2023-04-27T10:01:11;100788.13;;;11.94;61.42
35918;BME280;22011;59.912;30.300;2023-04-27T10:03:48;100788.13;;;11.94;61.05
35918;BME280;22011;59.912;30.300;2023-04-27T10:06:51;100782.25;;;12.30;61.33
35918;BME280;22011;59.912;30.300;2023-04-27T10:09:21;100788.56;;;12.37;59.68
35918;BME280;22011;59.912;30.300;2023-04-27T10:11:50;100788.09;;;12.79;57.80
35918;BME280;22011;59.912;30.300;2023-04-27T10:14:19;100792.78;;;13.00;56.99
35918;BME280;22011;59.912;30.300;2023-04-27T10:16:50;100786.50;;;13.30;56.22
35918;BME280;22011;59.912;30.300;2023-04-27T10:19:20;100785.06;;;13.43;54.96
35918;BME280;22011;59.912;30.300;2023-04-27T10:21:56;100796.03;;;13.48;56.17
35918;BME280;22011;59.912;30.300;2023-04-27T10:24:34;100787.25;;;13.54;56.30
35918;BME280;22011;59.912;30.300;2023-04-27T10:27:03;100791.88;;;13.30;55.12
35918;BME280;22011;59.912;30.300;2023-04-27T10:29:36;100787.81;;;13.34;55.96
35918;BME280;22011;59.912;30.300;2023-04-27T10:32:08;100789.09;;;13.24;56.09
35918;BME280;22011;59.912;30.300;2023-04-27T10:34:38;100792.53;;;13.09;56.34
35918;BME280;22011;59.912;30.300;2023-04-27T10:37:09;100802.09;;;13.04;55.87
35918;BME280;22011;59.912;30.300;2023-04-27T10:39:40;100798.06;;;13.08;56.06
35918;BME280;22011;59.912;30.300;2023-04-27T10:42:07;100791.13;;;12.99;55.53
35918;BME280;22011;59.912;30.300;2023-04-27T10:44:36;100789.44;;;12.98;55.31
35918;BME280;22011;59.912;30.300;2023-04-27T10:47:14;100784.38;;;13.03;56.76
35918;BME280;22011;59.912;30.300;2023-04-27T10:49:43;100790.22;;;12.84;55.83
35918;BME280;22011;59.912;30.300;2023-04-27T10:52:11;100795.47;;;12.77;56.40
35918;BME280;22011;59.912;30.300;2023-04-27T10:54:44;100791.13;;;12.99;56.23
35918;BME280;22011;59.912;30.300;2023-04-27T10:57:12;100781.25;;;13.22;54.72
35918;BME280;22011;59.912;30.300;2023-04-27T10:59:47;100786.16;;;13.63;54.63
35918;BME280;22011;59.912;30.300;2023-04-27T11:02:16;100774.59;;;13.62;53.20
35918;BME280;22011;59.912;30.300;2023-04-27T11:04:44;100787.81;;;13.64;53.16
35918;BME280;22011;59.912;30.300;2023-04-27T11:07:22;100805.91;;;13.91;53.63
35918;BME280;22011;59.912;30.300;2023-04-27T11:09:52;100802.84;;;13.80;52.97
35918;BME280;22011;59.912;30.300;2023-04-27T11:12:20;100817.63;;;13.75;52.85
35918;BME280;22011;59.912;30.300;2023-04-27T11:14:48;100823.16;;;13.59;52.44
35918;BME280;22011;59.912;30.300;2023-04-27T11:17:15;100821.59;;;13.65;52.58
35918;BME280;22011;59.912;30.300;2023-04-27T11:19:43;100825.84;;;13.59;52.57
35918;BME280;22011;59.912;30.300;2023-04-27T11:22:13;100839.59;;;13.56;52.76
35918;BME280;22011;59.912;30.300;2023-04-27T11:24:46;100837.22;;;13.47;53.56
35918;BME280;22011;59.912;30.300;2023-04-27T11:27:16;100841.25;;;13.43;53.20
35918;BME280;22011;59.912;30.300;2023-04-27T11:29:43;100837.94;;;13.40;52.55
35918;BME280;22011;59.912;30.300;2023-04-27T11:32:18;100839.34;;;13.51;53.40
35918;BME280;22011;59.912;30.300;2023-04-27T11:34:48;100835.00;;;13.50;53.13
35918;BME280;22011;59.912;30.300;2023-04-27T11:37:20;100841.44;;;13.56;53.07
35918;BME280;22011;59.912;30.300;2023-04-27T11:39:49;100852.63;;;13.45;52.74
35918;BME280;22011;59.912;30.300;2023-04-27T11:42:19;100853.91;;;13.49;53.05
35918;BME280;22011;59.912;30.300;2023-04-27T11:44:55;100847.38;;;13.51;54.31
35918;BME280;22011;59.912;30.300;2023-04-27T11:47:24;100859.69;;;13.37;53.31
35918;BME280;22011;59.912;30.300;2023-04-27T11:49:54;100851.94;;;13.28;53.87
35918;BME280;22011;59.912;30.300;2023-04-27T11:52:22;100859.03;;;13.13;54.14
35918;BME280;22011;59.912;30.300;2023-04-27T11:54:54;100876.03;;;12.97;54.67
35918;BME280;22011;59.912;30.300;2023-04-27T11:57:24;100875.44;;;12.87;55.67
35918;BME280;22011;59.912;30.300;2023-04-27T11:59:54;100876.19;;;12.72;55.74
35918;BME280;22011;59.912;30.300;2023-04-27T12:02:22;100885.84;;;12.51;55.82
35918;BME280;22011;59.912;30.300;2023-04-27T12:04:50;100865.09;;;12.30;56.90
35918;BME280;22011;59.912;30.300;2023-04-27T12:07:17;100870.63;;;12.20;57.12
35918;BME280;22011;59.912;30.300;2023-04-27T12:09:45;100878.28;;;12.31;57.36
35918;BME280;22011;59.912;30.300;2023-04-27T12:12:13;100889.50;;;12.19;57.47
35918;BME280;22011;59.912;30.300;2023-04-27T12:14:44;100890.38;;;12.11;57.60
35918;BME280;22011;59.912;30.300;2023-04-27T12:17:12;100888.75;;;11.94;57.30
35918;BME280;22011;59.912;30.300;2023-04-27T12:19:39;100897.75;;;11.76;57.35
35918;BME280;22011;59.912;30.300;2023-04-27T12:22:07;100906.94;;;11.66;57.79
35918;BME280;22011;59.912;30.300;2023-04-27T12:24:35;100909.63;;;11.50;57.56
35918;BME280;22011;59.912;30.300;2023-04-27T12:27:03;100926.34;;;11.43;57.95
35918;BME280;22011;59.912;30.300;2023-04-27T12:29:30;100923.00;;;11.25;57.92
35918;BME280;22011;59.912;30.300;2023-04-27T12:31:59;100925.13;;;11.05;58.48
35918;BME280;22011;59.912;30.300;2023-04-27T12:34:27;100921.75;;;10.87;58.98
35918;BME280;22011;59.912;30.300;2023-04-27T12:36:54;100930.91;;;10.85;59.38
35918;BME280;22011;59.912;30.300;2023-04-27T12:39:22;100952.53;;;10.73;59.43
35918;BME280;22011;59.912;30.300;2023-04-27T12:41:51;100971.81;;;10.59;59.55
35918;BME280;22011;59.912;30.300;2023-04-27T12:44:20;100960.78;;;10.54;60.10
35918;BME280;22011;59.912;30.300;2023-04-27T12:46:48;100971.41;;;10.38;60.48
35918;BME280;22011;59.912;30.300;2023-04-27T12:49:16;100968.91;;;10.36;60.91
35918;BME280;22011;59.912;30.300;2023-04-27T12:51:44;100974.81;;;10.22;60.81
35918;BME280;22011;59.912;30.300;2023-04-27T12:54:12;100967.84;;;10.29;60.71
35918;BME280;22011;59.912;30.300;2023-04-27T12:56:40;100967.38;;;10.34;60.57